Time;durP1;ratioP1;P1;durP2;ratioP2;P2;SDS_P1;SDS_P2;PMS_P1;PMS_P2;Temp;Humidity;BMP_temperature;BMP_pressure;BME280_temperature;BME280_humidity;BME280_pressure;Samples;Min_cycle;Max_cycle;Signal;HPM_P1;HPM_P2
2022/07/09 00:02:17;;;;;;;6.68;2.20;;;;;;;;;;4977918;28;20039;-85
2022/07/09 00:04:43;;;;;;;7.22;1.80;;;;;;;;;;4960773;28;20034;-85
2022/07/09 00:07:08;;;;;;;3.00;1.60;;;;;;;;;;4960308;28;20508;-84
2022/07/09 00:09:34;;;;;;;7.78;1.58;;;;;;;;;;4961122;28;20044;-85
2022/07/09 00:12:00;;;;;;;2.97;1.50;;;;;;;;;;4960862;28;20042;-85
2022/07/09 00:14:25;;;;;;;3.92;1.60;;;;;;;;;;4977842;28;20041;-84
2022/07/09 00:16:51;;;;;;;4.07;1.83;;;;;;;;;;4960889;28;20046;-84
2022/07/09 00:19:16;;;;;;;3.78;1.63;;;;;;;;;;4977054;28;20058;-85
2022/07/09 00:21:43;;;;;;;4.53;1.60;;;;;;;;;;4961010;28;20122;-85
2022/07/09 00:24:08;;;;;;;3.92;1.65;;;;;;;;;;4960300;28;20061;-85
2022/07/09 00:26:34;;;;;;;4.93;1.60;;;;;;;;;;4978140;28;20407;-84
2022/07/09 00:28:59;;;;;;;3.35;1.50;;;;;;;;;;4959815;28;20530;-84
2022/07/09 00:31:25;;;;;;;5.57;1.88;;;;;;;;;;4976399;28;20110;-84
2022/07/09 00:33:51;;;;;;;3.28;1.50;;;;;;;;;;4960256;28;20222;-85
2022/07/09 00:36:16;;;;;;;5.95;1.77;;;;;;;;;;4977005;28;20141;-84
2022/07/09 00:38:42;;;;;;;4.88;1.60;;;;;;;;;;4960930;28;20031;-84
2022/07/09 00:41:07;;;;;;;4.57;1.50;;;;;;;;;;4961151;28;20170;-84
2022/07/09 00:43:33;;;;;;;3.35;1.67;;;;;;;;;;4976821;28;20046;-84
2022/07/09 00:45:59;;;;;;;5.60;1.45;;;;;;;;;;4960360;28;20082;-84
2022/07/09 00:48:25;;;;;;;5.93;1.70;;;;;;;;;;4960064;28;20407;-83
2022/07/09 00:50:51;;;;;;;7.15;1.92;;;;;;;;;;4960453;28;20040;-84
2022/07/09 00:53:24;;;;;;;7.85;1.70;;;;;;;;;;4960438;28;20399;-84
2022/07/09 00:55:51;;;;;;;5.68;1.70;;;;;;;;;;4960471;28;20676;-84
2022/07/09 00:58:18;;;;;;;4.05;1.80;;;;;;;;;;4960652;28;20113;-84
2022/07/09 01:00:44;;;;;;;2.42;1.48;;;;;;;;;;4960884;28;20038;-84
2022/07/09 01:03:10;;;;;;;5.03;1.60;;;;;;;;;;4960298;28;20031;-84
2022/07/09 01:05:35;;;;;;;4.43;1.70;;;;;;;;;;4960115;28;20042;-84
2022/07/09 01:08:05;;;;;;;5.20;1.50;;;;;;;;;;4958940;28;20035;-84
2022/07/09 01:10:33;;;;;;;5.32;1.52;;;;;;;;;;4976880;28;20038;-84
2022/07/09 01:12:59;;;;;;;4.57;1.58;;;;;;;;;;4960581;28;20034;-84
2022/07/09 01:15:25;;;;;;;5.38;1.52;;;;;;;;;;4961522;28;20039;-84
2022/07/09 01:17:52;;;;;;;3.42;1.40;;;;;;;;;;4976247;28;20101;-84
2022/07/09 01:20:21;;;;;;;4.13;1.50;;;;;;;;;;4960191;28;20058;-84
2022/07/09 01:22:47;;;;;;;5.32;1.60;;;;;;;;;;4960523;28;20031;-84
2022/07/09 01:25:17;;;;;;;3.10;1.40;;;;;;;;;;4978015;28;20042;-84
2022/07/09 01:27:42;;;;;;;3.05;1.50;;;;;;;;;;4975895;28;20046;-84
2022/07/09 01:30:08;;;;;;;4.20;1.70;;;;;;;;;;4976426;28;20026;-84
2022/07/09 01:32:34;;;;;;;5.03;1.58;;;;;;;;;;4976266;28;20035;-85
2022/07/09 01:35:00;;;;;;;3.28;1.52;;;;;;;;;;4960455;28;20126;-84
2022/07/09 01:37:25;;;;;;;4.93;1.52;;;;;;;;;;4976061;28;20038;-84
2022/07/09 01:39:51;;;;;;;6.43;1.60;;;;;;;;;;4976184;28;20022;-84
2022/07/09 01:42:17;;;;;;;6.22;1.77;;;;;;;;;;4979706;28;20030;-83
2022/07/09 01:44:44;;;;;;;2.33;1.42;;;;;;;;;;4978635;28;20046;-84
2022/07/09 01:47:10;;;;;;;4.68;1.42;;;;;;;;;;4963606;28;20039;-84
2022/07/09 01:49:35;;;;;;;4.13;1.40;;;;;;;;;;4963575;28;20035;-84
2022/07/09 01:52:01;;;;;;;6.05;1.77;;;;;;;;;;4963454;28;20039;-84
2022/07/09 01:54:26;;;;;;;4.43;1.70;;;;;;;;;;4979954;28;20031;-84
2022/07/09 01:56:52;;;;;;;5.80;1.60;;;;;;;;;;4979377;28;20499;-84
2022/07/09 01:59:18;;;;;;;6.75;1.70;;;;;;;;;;4963692;28;20038;-84
2022/07/09 02:01:43;;;;;;;6.13;1.55;;;;;;;;;;4962473;28;20030;-83
2022/07/09 02:04:09;;;;;;;2.72;1.67;;;;;;;;;;4979115;28;20484;-84
2022/07/09 02:06:34;;;;;;;3.72;1.50;;;;;;;;;;4979029;28;20094;-84
2022/07/09 02:09:00;;;;;;;3.22;1.45;;;;;;;;;;4963394;28;20058;-84
2022/07/09 02:11:26;;;;;;;2.92;1.42;;;;;;;;;;4980133;28;20495;-83
2022/07/09 02:13:51;;;;;;;4.15;1.50;;;;;;;;;;4979292;28;20049;-84
2022/07/09 02:16:17;;;;;;;3.83;1.88;;;;;;;;;;4979544;28;20035;-84
2022/07/09 02:18:42;;;;;;;8.05;1.67;;;;;;;;;;4978872;28;20038;-84
2022/07/09 02:21:08;;;;;;;3.67;1.60;;;;;;;;;;4963251;28;20492;-84
2022/07/09 02:23:34;;;;;;;6.97;1.50;;;;;;;;;;4978968;28;20041;-85
2022/07/09 02:25:59;;;;;;;4.40;1.60;;;;;;;;;;4962706;28;20055;-84
2022/07/09 02:28:25;;;;;;;6.03;1.42;;;;;;;;;;4962588;28;20050;-84
2022/07/09 02:30:51;;;;;;;4.88;1.60;;;;;;;;;;4962984;28;20039;-84
2022/07/09 02:33:17;;;;;;;3.88;1.55;;;;;;;;;;4978968;28;20046;-84
2022/07/09 02:35:42;;;;;;;6.38;1.55;;;;;;;;;;4977987;28;20042;-84
2022/07/09 02:38:08;;;;;;;5.78;1.50;;;;;;;;;;4979256;28;20066;-84
2022/07/09 02:40:34;;;;;;;6.03;1.52;;;;;;;;;;4962400;28;20035;-84
2022/07/09 02:43:00;;;;;;;6.00;1.50;;;;;;;;;;4979915;28;20066;-84
2022/07/09 02:45:26;;;;;;;3.58;1.55;;;;;;;;;;4962071;28;20046;-83
2022/07/09 02:47:51;;;;;;;4.57;1.70;;;;;;;;;;4978118;28;20037;-83
2022/07/09 02:50:17;;;;;;;8.10;1.77;;;;;;;;;;4978295;28;20042;-84
2022/07/09 02:52:42;;;;;;;2.25;1.50;;;;;;;;;;4961524;28;20515;-84
2022/07/09 02:55:08;;;;;;;7.07;1.80;;;;;;;;;;4961665;28;20034;-84
2022/07/09 02:57:34;;;;;;;3.80;1.50;;;;;;;;;;4961946;28;20042;-83
2022/07/09 02:59:59;;;;;;;6.80;1.67;;;;;;;;;;4978383;28;20162;-84
2022/07/09 03:02:25;;;;;;;5.72;1.80;;;;;;;;;;4978977;28;20037;-84
2022/07/09 03:04:51;;;;;;;3.67;1.67;;;;;;;;;;4962075;28;20030;-84
2022/07/09 03:07:17;;;;;;;5.10;1.50;;;;;;;;;;4977303;28;20110;-83
2022/07/09 03:09:43;;;;;;;4.00;1.73;;;;;;;;;;4961627;28;20054;-84
2022/07/09 03:12:09;;;;;;;3.72;1.80;;;;;;;;;;4961266;28;20031;-83
2022/07/09 03:14:34;;;;;;;4.72;1.70;;;;;;;;;;4978185;28;20027;-84
2022/07/09 03:17:01;;;;;;;3.97;1.60;;;;;;;;;;4961766;28;20094;-84
2022/07/09 03:19:27;;;;;;;6.90;1.70;;;;;;;;;;4962013;28;20034;-85
2022/07/09 03:21:52;;;;;;;3.75;1.50;;;;;;;;;;4977574;28;20407;-86
2022/07/09 03:24:18;;;;;;;3.65;1.63;;;;;;;;;;4977822;28;20496;-85
2022/07/09 03:26:43;;;;;;;5.95;1.90;;;;;;;;;;4962725;28;20031;-84
2022/07/09 03:29:09;;;;;;;4.80;1.70;;;;;;;;;;4962010;28;20035;-81
2022/07/09 03:31:35;;;;;;;7.35;1.98;;;;;;;;;;4961065;28;20500;-86
2022/07/09 03:34:00;;;;;;;6.57;1.50;;;;;;;;;;4977386;28;20523;-86
2022/07/09 03:36:26;;;;;;;4.93;1.65;;;;;;;;;;4977857;28;20513;-85
2022/07/09 03:38:52;;;;;;;3.22;1.58;;;;;;;;;;4977857;28;20118;-84
2022/07/09 03:41:17;;;;;;;4.00;1.75;;;;;;;;;;4978288;28;20034;-85
2022/07/09 03:43:43;;;;;;;3.35;1.65;;;;;;;;;;4961376;28;20064;-85
2022/07/09 03:46:08;;;;;;;3.83;1.85;;;;;;;;;;4961316;28;20574;-85
2022/07/09 03:48:34;;;;;;;6.47;1.52;;;;;;;;;;4978345;28;20034;-83
2022/07/09 03:51:00;;;;;;;6.25;1.77;;;;;;;;;;4977111;28;20031;-85
2022/07/09 03:53:25;;;;;;;3.38;1.52;;;;;;;;;;4961454;28;20026;-85
2022/07/09 03:55:51;;;;;;;3.58;1.60;;;;;;;;;;4961024;28;20046;-85
2022/07/09 03:58:17;;;;;;;3.75;1.50;;;;;;;;;;4961015;28;20076;-85
2022/07/09 04:00:42;;;;;;;2.05;1.45;;;;;;;;;;4960850;28;20089;-85
2022/07/09 04:03:08;;;;;;;7.03;1.70;;;;;;;;;;4977101;28;20050;-85
2022/07/09 04:05:33;;;;;;;4.88;1.80;;;;;;;;;;4977590;28;20042;-85
2022/07/09 04:07:59;;;;;;;3.55;1.60;;;;;;;;;;4961294;28;20038;-84
2022/07/09 04:10:25;;;;;;;3.92;1.63;;;;;;;;;;4961283;28;20039;-86
2022/07/09 04:12:50;;;;;;;2.58;1.42;;;;;;;;;;4976375;28;20514;-85
2022/07/09 04:15:16;;;;;;;3.67;1.60;;;;;;;;;;4961124;28;20034;-85
2022/07/09 04:17:41;;;;;;;3.72;1.50;;;;;;;;;;4976939;28;20137;-85
2022/07/09 04:20:08;;;;;;;3.35;1.60;;;;;;;;;;4961408;28;20042;-85
2022/07/09 04:22:33;;;;;;;5.30;1.80;;;;;;;;;;4961446;28;20031;-84
2022/07/09 04:24:59;;;;;;;5.05;1.40;;;;;;;;;;4976533;28;20027;-85
2022/07/09 04:27:25;;;;;;;5.85;1.67;;;;;;;;;;4960878;28;20035;-85
2022/07/09 04:29:50;;;;;;;2.90;1.67;;;;;;;;;;4960538;28;20043;-84
2022/07/09 04:32:16;;;;;;;4.70;1.60;;;;;;;;;;4976730;28;20035;-85
2022/07/09 04:34:42;;;;;;;2.88;1.70;;;;;;;;;;4976396;28;20054;-85
2022/07/09 04:37:07;;;;;;;4.00;1.77;;;;;;;;;;4960869;28;20035;-85
2022/07/09 04:39:33;;;;;;;6.57;1.67;;;;;;;;;;4977310;28;20039;-85
2022/07/09 04:41:58;;;;;;;9.45;3.10;;;;;;;;;;4976923;28;20030;-84
2022/07/09 04:44:24;;;;;;;6.03;1.90;;;;;;;;;;4960540;28;20058;-85
2022/07/09 04:46:50;;;;;;;5.68;1.60;;;;;;;;;;4976720;28;20518;-85
2022/07/09 04:49:15;;;;;;;8.75;2.05;;;;;;;;;;4960009;28;20056;-85
2022/07/09 04:51:41;;;;;;;3.70;1.65;;;;;;;;;;4976913;28;20031;-84
2022/07/09 04:54:06;;;;;;;7.97;1.85;;;;;;;;;;4975653;28;20129;-85
2022/07/09 04:56:32;;;;;;;5.43;1.60;;;;;;;;;;4960101;28;20066;-84
2022/07/09 04:59:00;;;;;;;5.70;1.75;;;;;;;;;;4976065;28;20121;-84
2022/07/09 05:01:26;;;;;;;5.60;1.65;;;;;;;;;;4976050;28;20440;-85
2022/07/09 05:03:52;;;;;;;4.30;1.90;;;;;;;;;;4975838;28;20041;-84
2022/07/09 05:06:19;;;;;;;5.15;1.60;;;;;;;;;;4975262;28;20031;-84
2022/07/09 05:08:47;;;;;;;7.15;1.90;;;;;;;;;;4960068;28;20035;-85
2022/07/09 05:11:13;;;;;;;4.05;1.65;;;;;;;;;;4976333;28;20090;-85
2022/07/09 05:13:42;;;;;;;5.78;1.65;;;;;;;;;;4975979;28;20030;-85
2022/07/09 05:16:08;;;;;;;4.50;1.52;;;;;;;;;;4979527;28;20030;-85
2022/07/09 05:18:34;;;;;;;4.53;1.58;;;;;;;;;;4979989;28;20049;-85
2022/07/09 05:21:00;;;;;;;5.20;1.73;;;;;;;;;;4968995;28;20318;-83
2022/07/09 05:23:25;;;;;;;4.78;1.55;;;;;;;;;;4988524;28;20027;-79
2022/07/09 05:25:51;;;;;;;5.63;1.80;;;;;;;;;;4987394;28;20042;-83
2022/07/09 05:28:17;;;;;;;4.13;1.52;;;;;;;;;;4972302;28;20026;-84
2022/07/09 05:30:43;;;;;;;4.90;1.80;;;;;;;;;;4987812;28;20039;-84
2022/07/09 05:33:09;;;;;;;3.55;1.70;;;;;;;;;;4971628;28;20035;-84
2022/07/09 05:35:34;;;;;;;5.13;1.70;;;;;;;;;;4987969;28;20046;-83
2022/07/09 05:38:00;;;;;;;4.80;1.98;;;;;;;;;;4987602;28;20062;-83
2022/07/09 05:40:26;;;;;;;3.85;1.70;;;;;;;;;;4987163;28;20092;-83
2022/07/09 05:42:51;;;;;;;3.28;1.95;;;;;;;;;;4987171;28;20042;-83
2022/07/09 05:45:17;;;;;;;4.53;1.90;;;;;;;;;;4987554;28;20045;-83
2022/07/09 05:47:43;;;;;;;2.90;1.80;;;;;;;;;;4970606;28;20042;-84
2022/07/09 05:50:09;;;;;;;3.35;1.80;;;;;;;;;;4987615;28;20031;-83
2022/07/09 05:52:34;;;;;;;5.85;1.58;;;;;;;;;;4971491;28;20059;-83
2022/07/09 05:55:00;;;;;;;4.80;1.70;;;;;;;;;;4987075;28;20039;-83
2022/07/09 05:57:26;;;;;;;6.15;1.67;;;;;;;;;;4986737;28;20130;-83
2022/07/09 05:59:51;;;;;;;6.22;1.70;;;;;;;;;;4986542;28;20039;-83
2022/07/09 06:02:18;;;;;;;6.15;1.83;;;;;;;;;;4970920;28;20034;-83
2022/07/09 06:04:44;;;;;;;3.92;1.88;;;;;;;;;;4986806;28;20126;-83
2022/07/09 06:07:09;;;;;;;3.85;1.58;;;;;;;;;;4986665;28;20085;-83
2022/07/09 06:09:35;;;;;;;4.78;1.70;;;;;;;;;;4986720;28;20039;-83
2022/07/09 06:12:01;;;;;;;4.05;1.85;;;;;;;;;;4970199;28;20039;-83
2022/07/09 06:14:26;;;;;;;4.72;1.60;;;;;;;;;;4969831;28;20388;-83
2022/07/09 06:16:54;;;;;;;2.83;1.60;;;;;;;;;;4970167;28;20035;-84
2022/07/09 06:19:19;;;;;;;6.50;1.73;;;;;;;;;;4986686;28;20102;-83
2022/07/09 06:21:45;;;;;;;3.97;1.83;;;;;;;;;;4970494;28;20038;-84
2022/07/09 06:24:11;;;;;;;3.50;1.60;;;;;;;;;;4986183;28;20057;-83
2022/07/09 06:26:36;;;;;;;6.88;1.70;;;;;;;;;;4986865;28;20034;-83
2022/07/09 06:29:02;;;;;;;6.00;1.80;;;;;;;;;;4986523;28;20190;-83
2022/07/09 06:31:28;;;;;;;3.75;1.80;;;;;;;;;;4985959;28;20050;-84
2022/07/09 06:33:53;;;;;;;4.45;1.65;;;;;;;;;;4986107;28;20516;-83
2022/07/09 06:36:19;;;;;;;5.95;1.88;;;;;;;;;;4970218;28;20038;-83
2022/07/09 06:41:28;;;;;;;5.40;1.70;;;;;;;;;;4986104;28;20118;-84
2022/07/09 06:43:54;;;;;;;5.18;1.83;;;;;;;;;;4969715;28;20045;-83
2022/07/09 06:46:19;;;;;;;4.43;1.85;;;;;;;;;;4969854;28;20042;-84
2022/07/09 06:48:46;;;;;;;6.03;1.60;;;;;;;;;;4986295;28;20281;-83
2022/07/09 06:51:11;;;;;;;5.18;2.08;;;;;;;;;;4969824;28;20065;-83
2022/07/09 06:53:37;;;;;;;4.35;1.70;;;;;;;;;;4969326;28;20413;-83
2022/07/09 06:56:03;;;;;;;3.75;1.70;;;;;;;;;;4969694;28;20053;-84
2022/07/09 06:58:29;;;;;;;6.32;1.80;;;;;;;;;;4969689;28;20041;-83
2022/07/09 07:00:54;;;;;;;5.40;1.80;;;;;;;;;;4985555;28;20034;-83
2022/07/09 07:03:20;;;;;;;4.80;1.77;;;;;;;;;;4969480;28;20035;-83
2022/07/09 07:05:45;;;;;;;3.40;1.63;;;;;;;;;;4970014;28;20055;-82
2022/07/09 07:08:11;;;;;;;9.80;2.00;;;;;;;;;;4978583;23;20047;-83
2022/07/09 07:10:37;;;;;;;4.70;1.70;;;;;;;;;;4931157;29;20047;-84
2022/07/09 07:13:02;;;;;;;4.05;1.77;;;;;;;;;;4930913;29;20564;-84
2022/07/09 07:15:28;;;;;;;5.00;1.80;;;;;;;;;;4930692;29;20035;-84
2022/07/09 07:17:53;;;;;;;3.90;1.50;;;;;;;;;;4948567;29;20413;-84
2022/07/09 07:20:22;;;;;;;3.63;1.42;;;;;;;;;;4947535;28;20035;-84
2022/07/09 07:22:48;;;;;;;8.35;1.90;;;;;;;;;;4947001;29;20134;-84
2022/07/09 07:25:14;;;;;;;4.80;1.40;;;;;;;;;;4930668;29;20047;-83
2022/07/09 07:27:40;;;;;;;4.07;1.63;;;;;;;;;;4946596;28;20114;-84
2022/07/09 07:30:06;;;;;;;6.93;1.60;;;;;;;;;;4946191;29;20038;-84
2022/07/09 07:32:31;;;;;;;2.83;1.58;;;;;;;;;;4930875;29;20016;-84
2022/07/09 07:34:57;;;;;;;4.13;1.65;;;;;;;;;;4930773;29;20063;-84
2022/07/09 07:37:23;;;;;;;3.08;1.48;;;;;;;;;;4946535;29;20055;-84
2022/07/09 07:39:48;;;;;;;2.92;1.42;;;;;;;;;;4930794;29;20032;-83
2022/07/09 07:42:15;;;;;;;4.18;1.42;;;;;;;;;;4945857;29;20563;-84
2022/07/09 07:44:41;;;;;;;3.28;1.60;;;;;;;;;;4929658;29;20047;-83
2022/07/09 07:47:07;;;;;;;4.10;1.60;;;;;;;;;;4946694;29;20523;-84
2022/07/09 07:49:32;;;;;;;3.85;1.40;;;;;;;;;;4930051;29;20126;-83
2022/07/09 07:51:58;;;;;;;2.55;1.30;;;;;;;;;;4930470;29;20028;-84
2022/07/09 07:54:23;;;;;;;7.07;1.63;;;;;;;;;;4930071;29;20052;-83
2022/07/09 07:56:50;;;;;;;5.85;1.60;;;;;;;;;;4945276;29;20070;-84
2022/07/09 07:59:16;;;;;;;5.55;1.60;;;;;;;;;;4945617;28;20082;-84
2022/07/09 08:01:42;;;;;;;5.60;1.60;;;;;;;;;;4929430;29;20118;-84
2022/07/09 08:04:08;;;;;;;4.75;1.80;;;;;;;;;;4929479;29;20090;-83
2022/07/09 08:06:35;;;;;;;5.82;1.80;;;;;;;;;;4944952;29;20063;-84
2022/07/09 08:09:04;;;;;;;7.80;2.05;;;;;;;;;;4914197;29;20047;-84
2022/07/09 08:11:30;;;;;;;4.32;1.60;;;;;;;;;;4929422;29;20055;-84
2022/07/09 08:13:55;;;;;;;4.65;1.50;;;;;;;;;;4945372;29;20063;-83
2022/07/09 08:16:21;;;;;;;3.17;1.63;;;;;;;;;;4930427;29;20040;-84
2022/07/09 08:18:48;;;;;;;2.67;1.30;;;;;;;;;;4945802;28;20040;-84
2022/07/09 08:21:14;;;;;;;4.45;1.55;;;;;;;;;;4945775;28;20043;-84
2022/07/09 08:23:53;;;;;;;3.90;1.48;;;;;;;;;;4945892;29;20111;-84
2022/07/09 08:26:24;;;;;;;3.95;1.40;;;;;;;;;;4945169;29;20036;-84
2022/07/09 08:28:50;;;;;;;3.65;1.60;;;;;;;;;;4945421;29;20297;-84
2022/07/09 08:31:17;;;;;;;2.47;1.38;;;;;;;;;;4945657;28;20047;-84
2022/07/09 08:33:43;;;;;;;4.82;1.40;;;;;;;;;;4929544;29;20044;-84
2022/07/09 08:36:09;;;;;;;4.93;1.40;;;;;;;;;;4944632;28;20042;-84
2022/07/09 08:38:35;;;;;;;3.53;1.38;;;;;;;;;;4945178;29;20039;-82
2022/07/09 08:41:03;;;;;;;2.72;1.40;;;;;;;;;;4944305;29;20040;-84
2022/07/09 08:43:35;;;;;;;3.05;1.50;;;;;;;;;;4945439;29;20042;-83
2022/07/09 08:46:01;;;;;;;5.35;1.55;;;;;;;;;;4929443;29;20039;-84
2022/07/09 08:48:27;;;;;;;5.68;1.60;;;;;;;;;;4945616;28;20042;-84
2022/07/09 08:50:53;;;;;;;4.78;1.60;;;;;;;;;;4951679;29;20039;-83
2022/07/09 08:53:19;;;;;;;2.40;1.33;;;;;;;;;;4951351;28;20106;-84
2022/07/09 08:55:45;;;;;;;2.72;1.27;;;;;;;;;;4935212;29;20040;-83
2022/07/09 08:58:13;;;;;;;3.38;1.42;;;;;;;;;;4934666;29;20397;-83
2022/07/09 09:00:39;;;;;;;5.90;1.35;;;;;;;;;;4918366;29;20106;-83
2022/07/09 09:03:05;;;;;;;7.38;1.70;;;;;;;;;;4934813;29;20031;-84
2022/07/09 09:05:31;;;;;;;3.85;1.63;;;;;;;;;;4935462;29;20039;-84
2022/07/09 09:07:57;;;;;;;2.00;1.27;;;;;;;;;;4935445;29;20145;-84
2022/07/09 09:10:24;;;;;;;2.72;1.17;;;;;;;;;;4934990;29;20031;-84
2022/07/09 09:12:59;;;;;;;4.38;1.40;;;;;;;;;;4934330;29;20024;-84
2022/07/09 09:15:25;;;;;;;4.50;1.38;;;;;;;;;;4935143;29;20032;-84
2022/07/09 09:17:51;;;;;;;2.92;1.50;;;;;;;;;;4950278;29;20146;-84
2022/07/09 09:20:17;;;;;;;7.10;1.58;;;;;;;;;;4934178;29;20398;-84
2022/07/09 09:22:48;;;;;;;6.75;1.38;;;;;;;;;;4934154;29;20125;-84
2022/07/09 09:25:21;;;;;;;5.28;1.40;;;;;;;;;;4934675;29;20047;-84
2022/07/09 09:27:55;;;;;;;5.28;1.60;;;;;;;;;;4934259;29;20131;-84
2022/07/09 09:30:22;;;;;;;3.75;1.42;;;;;;;;;;4933784;29;20067;-85
2022/07/09 09:32:59;;;;;;;5.45;1.50;;;;;;;;;;4950629;29;20032;-84
2022/07/09 09:35:26;;;;;;;4.38;1.45;;;;;;;;;;4949748;29;20050;-84
2022/07/09 09:37:52;;;;;;;5.03;1.40;;;;;;;;;;4934212;29;20114;-84
2022/07/09 09:40:18;;;;;;;4.40;1.55;;;;;;;;;;4950196;28;20016;-84
2022/07/09 09:42:45;;;;;;;3.55;1.60;;;;;;;;;;4950549;29;20404;-84
2022/07/09 09:45:15;;;;;;;5.47;1.50;;;;;;;;;;4949574;29;20038;-83
2022/07/09 09:47:51;;;;;;;3.75;1.52;;;;;;;;;;4934122;29;20051;-84
2022/07/09 09:50:23;;;;;;;2.95;1.23;;;;;;;;;;4949938;29;20122;-84
2022/07/09 09:52:50;;;;;;;5.68;1.70;;;;;;;;;;4949705;29;20051;-84
2022/07/09 09:55:18;;;;;;;5.35;1.38;;;;;;;;;;4933875;29;20032;-84
2022/07/09 09:57:44;;;;;;;2.65;1.15;;;;;;;;;;4918597;29;20039;-84
2022/07/09 10:00:11;;;;;;;3.92;1.40;;;;;;;;;;4949106;29;20032;-85
2022/07/09 10:02:42;;;;;;;6.70;1.42;;;;;;;;;;4946613;29;20040;-84
2022/07/09 10:05:08;;;;;;;4.10;1.23;;;;;;;;;;4947232;29;20035;-84
2022/07/09 10:07:33;;;;;;;4.30;1.23;;;;;;;;;;4930820;29;20042;-85
2022/07/09 10:09:59;;;;;;;4.50;1.20;;;;;;;;;;4946538;29;20087;-84
2022/07/09 10:12:30;;;;;;;5.38;1.33;;;;;;;;;;4930338;29;20087;-84
2022/07/09 10:14:57;;;;;;;2.45;1.30;;;;;;;;;;4946960;29;20042;-84
2022/07/09 10:17:24;;;;;;;8.50;1.40;;;;;;;;;;4930534;29;20032;-85
2022/07/09 10:19:52;;;;;;;5.00;1.20;;;;;;;;;;4915415;29;20063;-84
2022/07/09 10:22:17;;;;;;;2.55;1.10;;;;;;;;;;4946606;29;20040;-84
2022/07/09 10:24:44;;;;;;;2.88;1.13;;;;;;;;;;4946275;29;20083;-84
2022/07/09 10:27:12;;;;;;;5.18;1.23;;;;;;;;;;4930534;29;20036;-84
2022/07/09 10:29:57;;;;;;;3.17;1.10;;;;;;;;;;4946464;29;20028;-84
2022/07/09 10:32:31;;;;;;;5.28;1.20;;;;;;;;;;4930498;29;20052;-83
2022/07/09 10:35:04;;;;;;;2.95;1.40;;;;;;;;;;4947562;29;20067;-84
2022/07/09 10:37:40;;;;;;;;;;;;;;;;;;4946205;29;20047;-83
2022/07/09 10:40:13;;;;;;;5.63;1.40;;;;;;;;;;4946303;29;19940;-84
2022/07/09 10:42:43;;;;;;;5.20;1.25;;;;;;;;;;4929939;29;20047;-84
2022/07/09 10:45:18;;;;;;;4.68;1.10;;;;;;;;;;4945928;29;20063;-84
2022/07/09 10:47:46;;;;;;;3.97;1.48;;;;;;;;;;4947581;29;20036;-84
2022/07/09 10:50:12;;;;;;;4.38;1.30;;;;;;;;;;4946974;28;20036;-84
2022/07/09 10:52:38;;;;;;;2.38;1.10;;;;;;;;;;4945968;29;20408;-84
2022/07/09 10:55:04;;;;;;;3.38;1.10;;;;;;;;;;4930451;29;20036;-84
2022/07/09 10:57:30;;;;;;;3.38;1.20;;;;;;;;;;4930267;29;20035;-84
2022/07/09 10:59:56;;;;;;;4.43;1.15;;;;;;;;;;4946821;29;20031;-85
2022/07/09 11:02:22;;;;;;;4.30;1.20;;;;;;;;;;4929388;29;20046;-84
2022/07/09 11:04:52;;;;;;;1.77;0.90;;;;;;;;;;4945241;29;20031;-84
2022/07/09 11:07:21;;;;;;;2.70;1.00;;;;;;;;;;4945241;29;20103;-84
2022/07/09 11:09:47;;;;;;;4.30;1.10;;;;;;;;;;4930246;29;20375;-84
2022/07/09 11:12:17;;;;;;;2.67;1.00;;;;;;;;;;4945402;29;20031;-84
2022/07/09 11:14:47;;;;;;;2.22;0.82;;;;;;;;;;4945127;28;20115;-84
2022/07/09 11:17:18;;;;;;;2.97;1.23;;;;;;;;;;4945131;29;20103;-84
2022/07/09 11:19:44;;;;;;;2.60;0.93;;;;;;;;;;4946074;29;20040;-84
2022/07/09 11:22:10;;;;;;;5.90;1.10;;;;;;;;;;4912933;29;20026;-84
2022/07/09 11:24:36;;;;;;;2.03;1.00;;;;;;;;;;4944217;29;20059;-84
2022/07/09 11:27:05;;;;;;;4.07;1.00;;;;;;;;;;4944583;29;20043;-84
2022/07/09 11:29:31;;;;;;;2.55;0.98;;;;;;;;;;4945739;28;20126;-84
2022/07/09 11:31:57;;;;;;;2.05;0.95;;;;;;;;;;4945011;29;20091;-84
2022/07/09 11:34:23;;;;;;;3.65;1.00;;;;;;;;;;4928191;29;20103;-84
2022/07/09 11:36:54;;;;;;;3.90;1.10;;;;;;;;;;4944457;29;20023;-84
2022/07/09 11:39:36;;;;;;;2.50;1.10;;;;;;;;;;4944664;29;20044;-84
2022/07/09 11:42:02;;;;;;;2.85;1.05;;;;;;;;;;4928147;29;20036;-84
2022/07/09 11:44:35;;;;;;;2.78;1.00;;;;;;;;;;4944247;29;20042;-84
2022/07/09 11:47:08;;;;;;;3.10;1.00;;;;;;;;;;4927946;29;20051;-85
2022/07/09 11:49:42;;;;;;;2.20;1.05;;;;;;;;;;4928006;29;20054;-86
2022/07/09 11:52:20;;;;;;;4.30;1.00;;;;;;;;;;4945291;29;20066;-84
2022/07/09 11:55:08;;;;;;;4.72;0.98;;;;;;;;;;4944998;29;20127;-84
2022/07/09 11:57:35;;;;;;;3.42;1.10;;;;;;;;;;4928159;29;20047;-84
2022/07/09 12:00:04;;;;;;;2.95;0.98;;;;;;;;;;4943221;29;20039;-84
2022/07/09 12:02:38;;;;;;;3.45;1.20;;;;;;;;;;4943670;29;20034;-84
2022/07/09 12:05:09;;;;;;;3.00;1.20;;;;;;;;;;4928325;29;20038;-84
2022/07/09 12:07:35;;;;;;;2.60;1.08;;;;;;;;;;4928563;29;20072;-84
2022/07/09 12:10:05;;;;;;;2.75;0.80;;;;;;;;;;4944629;28;20103;-85
2022/07/09 12:12:32;;;;;;;2.60;0.75;;;;;;;;;;4943499;29;20043;-84
2022/07/09 12:14:58;;;;;;;2.60;0.85;;;;;;;;;;4943372;29;20039;-84
2022/07/09 12:17:25;;;;;;;2.10;0.85;;;;;;;;;;4927490;29;20027;-84
2022/07/09 12:19:52;;;;;;;4.20;1.10;;;;;;;;;;4943430;29;20047;-85
2022/07/09 12:22:18;;;;;;;2.13;0.90;;;;;;;;;;4927276;29;20495;-86
2022/07/09 12:24:44;;;;;;;2.50;0.90;;;;;;;;;;4942327;29;20039;-85
2022/07/09 12:27:10;;;;;;;2.95;0.88;;;;;;;;;;4943207;29;20035;-86
2022/07/09 12:29:36;;;;;;;1.63;0.90;;;;;;;;;;4946651;29;20460;-85
2022/07/09 12:32:02;;;;;;;3.10;1.00;;;;;;;;;;4944240;28;20054;-86
2022/07/09 12:34:27;;;;;;;1.85;0.90;;;;;;;;;;4928244;29;20062;-86
2022/07/09 12:36:54;;;;;;;2.10;0.95;;;;;;;;;;4927369;29;20035;-82
2022/07/09 12:39:20;;;;;;;4.38;1.10;;;;;;;;;;4926735;29;20059;-86
2022/07/09 12:41:46;;;;;;;2.33;0.90;;;;;;;;;;4942939;29;20568;-85
2022/07/09 12:44:11;;;;;;;1.98;0.88;;;;;;;;;;4927608;29;20035;-86
2022/07/09 12:46:37;;;;;;;2.90;0.90;;;;;;;;;;4927156;29;20027;-86
2022/07/09 12:49:03;;;;;;;2.00;0.80;;;;;;;;;;4943925;29;20043;-86
2022/07/09 12:51:28;;;;;;;2.17;0.90;;;;;;;;;;4943691;29;20031;-85
2022/07/09 12:53:54;;;;;;;5.47;0.95;;;;;;;;;;4944419;29;20047;-86
2022/07/09 12:56:20;;;;;;;1.65;0.90;;;;;;;;;;4943549;29;20046;-85
2022/07/09 12:58:46;;;;;;;3.38;0.93;;;;;;;;;;4928152;29;20039;-85
2022/07/09 13:01:11;;;;;;;2.47;1.10;;;;;;;;;;4927783;29;20063;-85
2022/07/09 13:03:37;;;;;;;3.80;0.98;;;;;;;;;;4944242;29;20445;-86
2022/07/09 13:06:03;;;;;;;1.42;0.85;;;;;;;;;;4927524;29;20039;-85
2022/07/09 13:08:29;;;;;;;1.33;0.85;;;;;;;;;;4927056;29;20059;-86
2022/07/09 13:10:54;;;;;;;2.70;0.90;;;;;;;;;;4943245;29;20047;-86
2022/07/09 13:13:20;;;;;;;1.77;1.10;;;;;;;;;;4927333;29;20035;-85
2022/07/09 13:15:46;;;;;;;2.42;1.00;;;;;;;;;;4927329;29;20043;-86
2022/07/09 13:18:12;;;;;;;2.30;0.98;;;;;;;;;;4928113;29;20044;-85
2022/07/09 13:20:38;;;;;;;2.20;1.10;;;;;;;;;;4942837;29;20086;-87
2022/07/09 13:23:03;;;;;;;2.85;0.98;;;;;;;;;;4922180;29;20497;-87
2022/07/09 13:25:29;;;;;;;2.35;0.90;;;;;;;;;;4937420;28;20062;-87
2022/07/09 13:27:56;;;;;;;1.55;0.90;;;;;;;;;;4923067;29;20032;-87
2022/07/09 13:30:21;;;;;;;2.28;1.02;;;;;;;;;;4922265;29;20050;-86
2022/07/09 13:32:47;;;;;;;2.45;1.10;;;;;;;;;;4922537;29;20130;-87
2022/07/09 13:35:13;;;;;;;2.38;1.15;;;;;;;;;;4923698;29;20036;-87
2022/07/09 13:37:38;;;;;;;2.55;1.05;;;;;;;;;;4927198;29;20504;-87
2022/07/09 13:40:05;;;;;;;1.55;0.88;;;;;;;;;;4926616;29;20103;-87
2022/07/09 13:42:30;;;;;;;1.98;0.85;;;;;;;;;;4941722;29;20043;-87
2022/07/09 13:44:56;;;;;;;1.75;0.90;;;;;;;;;;4926485;29;20040;-86
2022/07/09 13:47:22;;;;;;;2.03;1.00;;;;;;;;;;4941873;29;20043;-88
2022/07/09 13:49:47;;;;;;;1.85;1.02;;;;;;;;;;4942145;29;20087;-87
2022/07/09 13:52:13;;;;;;;1.80;0.90;;;;;;;;;;4926336;29;20501;-87
2022/07/09 13:54:38;;;;;;;1.77;1.00;;;;;;;;;;4926682;29;20191;-87
2022/07/09 13:57:04;;;;;;;1.98;1.00;;;;;;;;;;4942665;29;20066;-87
2022/07/09 13:59:30;;;;;;;5.88;1.10;;;;;;;;;;4926264;29;20027;-88
2022/07/09 14:01:56;;;;;;;2.75;0.85;;;;;;;;;;4926009;29;20039;-87
2022/07/09 14:04:22;;;;;;;3.22;1.00;;;;;;;;;;4941279;29;20043;-87
2022/07/09 14:06:49;;;;;;;4.40;1.10;;;;;;;;;;4942289;28;20055;-87
2022/07/09 14:09:16;;;;;;;1.25;0.80;;;;;;;;;;4942805;29;20130;-88
2022/07/09 14:11:42;;;;;;;2.03;1.10;;;;;;;;;;4942821;29;20481;-87
2022/07/09 14:14:08;;;;;;;1.42;0.85;;;;;;;;;;4924581;29;20067;-86
2022/07/09 14:16:34;;;;;;;1.67;0.85;;;;;;;;;;4925749;29;20032;-87
2022/07/09 14:18:59;;;;;;;2.65;0.90;;;;;;;;;;4957802;28;20039;-88
2022/07/09 14:21:25;;;;;;;2.90;1.00;;;;;;;;;;4941867;29;20035;-87
2022/07/09 14:23:50;;;;;;;1.23;0.70;;;;;;;;;;4940445;29;20039;-87
2022/07/09 14:26:16;;;;;;;2.95;0.90;;;;;;;;;;4924837;29;20046;-86
2022/07/09 14:28:42;;;;;;;2.00;0.95;;;;;;;;;;4941693;28;20524;-86
2022/07/09 14:31:08;;;;;;;3.42;0.90;;;;;;;;;;4924592;29;20040;-87
2022/07/09 14:33:34;;;;;;;2.08;0.90;;;;;;;;;;4924357;29;20035;-87
2022/07/09 14:35:59;;;;;;;2.53;1.00;;;;;;;;;;4940315;28;20093;-88
2022/07/09 14:38:25;;;;;;;2.20;0.90;;;;;;;;;;4941712;29;20035;-86
2022/07/09 14:40:50;;;;;;;1.30;0.85;;;;;;;;;;4941780;29;20040;-86
2022/07/09 14:43:16;;;;;;;1.50;0.80;;;;;;;;;;4941291;29;20032;-88